createdAt,value
2023-04-15T00:00:10.410Z,58.37
2023-04-15T00:03:05.635Z,58.20
2023-04-15T00:05:38.552Z,58.31
2023-04-15T00:08:10.822Z,58.34
2023-04-15T00:10:44.315Z,58.41
2023-04-15T00:13:16.662Z,58.48
2023-04-15T00:15:49.242Z,58.43
2023-04-15T00:18:21.412Z,58.45
2023-04-15T00:20:53.835Z,58.49
2023-04-15T00:23:26.359Z,58.67
2023-04-15T00:25:58.841Z,58.63
2023-04-15T00:28:31.211Z,58.50
2023-04-15T00:31:03.653Z,58.69
2023-04-15T00:33:36.854Z,58.79
2023-04-15T00:36:11.340Z,58.73
2023-04-15T00:38:43.657Z,58.73
2023-04-15T00:41:16.093Z,58.79
2023-04-15T00:43:48.534Z,58.82
2023-04-15T00:46:23.371Z,58.82
2023-04-15T00:48:57.659Z,58.81
2023-04-15T00:51:31.229Z,58.74
2023-04-15T00:54:03.880Z,58.92
2023-04-15T00:56:39.235Z,58.97
2023-04-15T00:59:12.075Z,58.88
2023-04-15T01:01:45.766Z,58.92
2023-04-15T01:04:19.071Z,59.09
2023-04-15T01:06:51.532Z,58.86
2023-04-15T01:09:24.145Z,59.03
2023-04-15T01:11:57.193Z,59.10
2023-04-15T01:14:30.851Z,59.10
2023-04-15T01:17:03.369Z,59.03
2023-04-15T01:19:36.115Z,59.08
2023-04-15T01:22:08.570Z,59.14
2023-04-15T01:24:48.632Z,59.32
2023-04-15T01:27:22.572Z,59.23
2023-04-15T01:29:54.892Z,59.21
2023-04-15T01:32:28.224Z,59.30
2023-04-15T01:35:00.493Z,59.34
2023-04-15T01:37:33.537Z,59.37
2023-04-15T01:40:06.701Z,59.25
2023-04-15T01:42:39.651Z,59.48
2023-04-15T01:45:14.155Z,59.56
2023-04-15T01:47:46.539Z,59.34
2023-04-15T01:50:19.254Z,59.48
2023-04-15T01:52:51.630Z,59.65
2023-04-15T01:55:24.538Z,59.66
2023-04-15T01:57:56.966Z,59.50
2023-04-15T02:00:30.114Z,59.78
2023-04-15T02:03:02.788Z,59.78
2023-04-15T02:05:35.427Z,59.66
2023-04-15T02:08:10.355Z,59.86
2023-04-15T02:10:43.890Z,59.75
2023-04-15T02:13:17.072Z,59.77
2023-04-15T02:15:52.687Z,59.78
2023-04-15T02:18:24.998Z,59.95
2023-04-15T02:20:58.916Z,59.84
2023-04-15T02:23:31.434Z,59.95
2023-04-15T02:26:03.825Z,60.08
2023-04-15T02:28:37.196Z,59.88
2023-04-15T02:31:10.058Z,60.06
2023-04-15T02:33:42.478Z,59.97
2023-04-15T02:36:14.754Z,60.01
2023-04-15T02:38:47.031Z,60.08
2023-04-15T02:41:21.673Z,60.16
2023-04-15T02:43:53.994Z,60.16
2023-04-15T02:46:27.633Z,60.23
2023-04-15T02:49:00.441Z,60.15
2023-04-15T02:51:33.521Z,60.03
2023-04-15T02:54:06.212Z,60.25
2023-04-15T02:56:38.796Z,60.13
2023-04-15T02:59:11.379Z,60.21
2023-04-15T03:02:36.725Z,60.31
2023-04-15T03:05:15.074Z,60.24
2023-04-15T03:07:55.032Z,60.25
2023-04-15T03:10:27.651Z,60.39
2023-04-15T03:13:01.230Z,60.40
2023-04-15T03:15:33.861Z,60.27
2023-04-15T03:18:06.784Z,60.38
2023-04-15T03:20:39.645Z,60.35
2023-04-15T03:23:12.655Z,60.49
2023-04-15T03:25:45.920Z,60.37
2023-04-15T03:28:19.068Z,60.35
2023-04-15T03:30:51.730Z,60.57
2023-04-15T03:33:24.246Z,60.40
2023-04-15T03:35:56.995Z,60.44
2023-04-15T03:38:30.132Z,60.62
2023-04-15T03:41:02.602Z,60.61
2023-04-15T03:43:34.937Z,60.54
2023-04-15T03:46:07.602Z,60.55
2023-04-15T03:48:39.950Z,60.57
2023-04-15T03:51:12.485Z,60.65
2023-04-15T03:53:44.996Z,60.76
2023-04-15T03:56:17.375Z,60.61
2023-04-15T03:58:49.690Z,60.64
2023-04-15T04:01:22.132Z,60.56
2023-04-15T04:03:54.539Z,60.63
2023-04-15T04:06:27.627Z,60.74
2023-04-15T04:09:00.093Z,60.70
2023-04-15T04:11:33.195Z,60.72
2023-04-15T04:14:05.712Z,60.91
2023-04-15T04:16:38.058Z,60.86
2023-04-15T04:19:10.527Z,60.93
2023-04-15T04:21:43.012Z,60.84
2023-04-15T04:24:15.334Z,61.12
2023-04-15T04:26:47.538Z,61.17
2023-04-15T04:29:19.887Z,61.12
2023-04-15T04:31:52.322Z,61.17
2023-04-15T04:34:24.650Z,61.33
2023-04-15T04:36:56.916Z,61.31
2023-04-15T04:39:29.388Z,61.47
2023-04-15T04:42:02.443Z,61.42
2023-04-15T04:44:34.773Z,61.50
2023-04-15T04:47:07.747Z,61.55
2023-04-15T04:49:40.051Z,61.60
2023-04-15T04:52:12.408Z,61.63
2023-04-15T04:54:44.677Z,61.84
2023-04-15T04:57:17.055Z,61.92
2023-04-15T04:59:49.419Z,62.02
2023-04-15T05:02:22.077Z,62.05
2023-04-15T05:04:55.536Z,62.22
2023-04-15T05:07:27.978Z,62.28
2023-04-15T05:10:00.460Z,62.30
2023-04-15T05:12:32.833Z,62.34
2023-04-15T05:15:05.354Z,62.55
2023-04-15T05:17:37.679Z,62.60
2023-04-15T05:20:12.570Z,62.70
2023-04-15T05:22:44.826Z,62.61
2023-04-15T05:25:17.512Z,62.83
2023-04-15T05:27:49.886Z,62.94
2023-04-15T05:30:22.370Z,62.96
2023-04-15T05:32:54.750Z,63.01
2023-04-15T05:35:27.308Z,62.97
2023-04-15T05:37:59.702Z,63.22
2023-04-15T05:40:33.324Z,63.14
2023-04-15T05:43:05.627Z,63.30
2023-04-15T05:45:38.058Z,63.36
2023-04-15T05:48:10.949Z,63.40
2023-04-15T05:50:45.249Z,63.38
2023-04-15T05:53:17.845Z,63.54
2023-04-15T05:55:50.197Z,63.74
2023-04-15T05:58:22.505Z,63.67
2023-04-15T06:00:55.119Z,63.83
2023-04-15T06:03:27.696Z,63.68
2023-04-15T06:06:01.046Z,63.98
2023-04-15T06:08:33.491Z,63.97
2023-04-15T06:11:06.104Z,63.94
2023-04-15T06:13:38.382Z,64.05
2023-04-15T06:16:12.779Z,64.08
2023-04-15T06:18:45.078Z,64.29
2023-04-15T06:21:17.550Z,64.31
2023-04-15T06:23:49.902Z,64.30
2023-04-15T06:26:22.136Z,64.43
2023-04-15T06:28:54.494Z,64.47
2023-04-15T06:31:26.899Z,64.44
2023-04-15T06:33:59.291Z,64.47
2023-04-15T06:36:32.523Z,64.65
2023-04-15T06:39:04.901Z,64.68
2023-04-15T06:41:37.289Z,64.72
2023-04-15T06:44:09.833Z,64.60
2023-04-15T06:46:42.201Z,64.83
2023-04-15T06:49:14.497Z,64.90
2023-04-15T06:51:46.949Z,64.94
2023-04-15T06:54:19.302Z,64.92
2023-04-15T06:56:51.715Z,65.10
2023-04-15T06:59:24.245Z,65.04
2023-04-15T07:01:56.883Z,65.08
2023-04-15T07:04:29.469Z,65.18
2023-04-15T07:07:02.780Z,65.26
2023-04-15T07:09:35.063Z,65.40
2023-04-15T07:12:07.727Z,65.37
2023-04-15T07:14:40.013Z,65.34
2023-04-15T07:17:13.503Z,65.27
2023-04-15T07:19:45.829Z,65.53
2023-04-15T07:22:18.161Z,65.38
2023-04-15T07:24:50.645Z,65.55
2023-04-15T07:27:23.121Z,65.55
2023-04-15T07:29:55.435Z,65.57
2023-04-15T07:32:27.788Z,65.68
2023-04-15T07:35:00.221Z,65.71
2023-04-15T07:37:32.630Z,65.75
2023-04-15T07:40:07.290Z,65.68
2023-04-15T07:42:41.407Z,65.81
2023-04-15T07:45:14.605Z,65.88
2023-04-15T07:47:47.120Z,65.83
2023-04-15T07:50:20.161Z,65.86
2023-04-15T07:52:53.281Z,65.96
2023-04-15T07:55:27.260Z,65.93
2023-04-15T07:58:00.535Z,66.05
2023-04-15T08:00:32.873Z,65.94
2023-04-15T08:03:05.406Z,66.07
2023-04-15T08:05:37.965Z,66.09
2023-04-15T08:08:10.292Z,66.07
2023-04-15T08:10:43.143Z,66.22
2023-04-15T08:13:15.619Z,66.36
2023-04-15T08:15:48.054Z,66.32
2023-04-15T08:18:20.312Z,66.40
2023-04-15T08:20:52.584Z,66.36
2023-04-15T08:23:24.947Z,66.49
2023-04-15T08:25:57.805Z,66.56
2023-04-15T08:28:30.317Z,66.62
2023-04-15T08:31:02.780Z,66.51
2023-04-15T08:33:35.166Z,66.54
2023-04-15T08:36:08.080Z,66.67
2023-04-15T08:38:40.615Z,66.68
2023-04-15T08:41:20.286Z,66.60
2023-04-15T08:43:58.141Z,66.69
2023-04-15T08:46:31.624Z,66.76
2023-04-15T08:49:07.243Z,66.87
2023-04-15T08:51:40.018Z,66.79
2023-04-15T08:54:13.194Z,66.80
2023-04-15T08:56:46.168Z,66.77
2023-04-15T08:59:19.016Z,66.66
2023-04-15T09:01:53.039Z,66.91
2023-04-15T09:04:25.520Z,66.76
2023-04-15T09:06:58.498Z,66.76
2023-04-15T09:09:31.437Z,66.70
2023-04-15T09:12:04.255Z,66.71
2023-04-15T09:14:37.366Z,66.70
2023-04-15T09:17:13.126Z,66.86
2023-04-15T09:19:45.535Z,66.93
2023-04-15T09:22:18.202Z,66.85
2023-04-15T09:24:50.833Z,66.89
2023-04-15T09:27:23.646Z,66.93
2023-04-15T09:29:56.578Z,66.90
2023-04-15T09:32:29.084Z,66.94
2023-04-15T09:35:11.869Z,67.02
2023-04-15T09:37:44.227Z,66.94
2023-04-15T09:40:31.948Z,66.90
2023-04-15T09:43:05.223Z,67.09
2023-04-15T09:45:38.681Z,67.12
2023-04-15T09:48:22.076Z,67.26
2023-04-15T09:50:54.928Z,67.14
2023-04-15T09:53:30.466Z,67.12
2023-04-15T09:56:04.428Z,67.13
2023-04-15T09:58:38.881Z,67.17
2023-04-15T10:01:11.858Z,67.13
2023-04-15T10:03:45.863Z,67.21
2023-04-15T10:06:18.270Z,67.18
2023-04-15T10:08:50.659Z,67.37
2023-04-15T10:11:24.339Z,67.40
2023-04-15T10:13:57.624Z,67.40
2023-04-15T10:16:33.822Z,67.47
2023-04-15T10:19:08.600Z,67.35
2023-04-15T10:21:42.221Z,67.25
2023-04-15T10:24:14.694Z,67.45
2023-04-15T10:26:47.586Z,67.55
2023-04-15T10:29:20.991Z,67.55
2023-04-15T10:31:54.851Z,67.51
2023-04-15T10:34:28.350Z,67.49
2023-04-15T10:37:03.769Z,67.60
2023-04-15T10:39:44.554Z,67.62
2023-04-15T10:42:18.262Z,67.58
2023-04-15T10:44:52.979Z,67.60
2023-04-15T10:47:25.706Z,67.77
2023-04-15T10:50:03.778Z,67.66
2023-04-15T10:52:36.117Z,67.81
2023-04-15T10:55:16.552Z,67.76
2023-04-15T10:57:53.137Z,67.67
2023-04-15T11:00:30.117Z,67.75
2023-04-15T11:03:07.530Z,67.86
2023-04-15T11:05:57.139Z,67.77
2023-04-15T11:09:00.150Z,67.77
2023-04-15T11:12:09.927Z,67.90
2023-04-15T11:14:44.404Z,67.85
2023-04-15T11:17:28.820Z,68.00
2023-04-15T11:20:01.241Z,67.93
2023-04-15T11:22:33.601Z,67.99
2023-04-15T11:25:06.704Z,68.12
2023-04-15T11:27:39.218Z,68.11
2023-04-15T11:30:25.466Z,68.09
2023-04-15T11:32:59.615Z,68.24
2023-04-15T11:35:32.714Z,68.22
2023-04-15T11:38:10.217Z,68.40
2023-04-15T11:40:46.236Z,68.30
2023-04-15T11:43:21.760Z,68.16
2023-04-15T11:45:56.512Z,68.23
2023-04-15T11:48:30.798Z,68.42
2023-04-15T11:51:05.215Z,68.39
2023-04-15T11:53:42.646Z,68.60
2023-04-15T11:56:22.289Z,68.53
2023-04-15T11:58:58.586Z,68.71
2023-04-15T12:01:39.533Z,68.81
2023-04-15T12:04:16.612Z,68.79
2023-04-15T12:06:50.096Z,68.78
2023-04-15T12:09:22.511Z,68.95
2023-04-15T12:11:58.799Z,68.97
2023-04-15T12:14:33.016Z,69.05
2023-04-15T12:17:07.538Z,69.07
2023-04-15T12:19:41.951Z,68.95
2023-04-15T12:22:15.912Z,69.09
2023-04-15T12:24:49.551Z,69.11
2023-04-15T12:27:22.100Z,69.21
2023-04-15T12:30:08.105Z,69.23
2023-04-15T12:32:43.456Z,69.28
2023-04-15T12:35:15.990Z,69.16
2023-04-15T12:37:48.403Z,69.28
2023-04-15T12:40:21.175Z,69.30
2023-04-15T12:42:53.492Z,69.31
2023-04-15T12:45:27.499Z,69.37
2023-04-15T12:48:01.271Z,69.43
2023-04-15T12:50:33.703Z,69.40
2023-04-15T12:53:06.422Z,69.47
2023-04-15T12:55:38.700Z,69.65
2023-04-15T12:58:11.873Z,69.59
2023-04-15T13:00:44.871Z,69.60
2023-04-15T13:03:17.731Z,69.79
2023-04-15T13:05:50.082Z,69.60
2023-04-15T13:08:22.449Z,69.79
2023-04-15T13:10:55.037Z,69.65
2023-04-15T13:13:27.638Z,69.81
2023-04-15T13:16:00.177Z,69.84
2023-04-15T13:18:32.528Z,69.74
2023-04-15T13:21:07.537Z,69.82
2023-04-15T13:23:39.771Z,69.89
2023-04-15T13:26:12.463Z,69.92
2023-04-15T13:28:44.797Z,69.97
2023-04-15T13:31:17.207Z,69.82
2023-04-15T13:33:49.464Z,70.05
2023-04-15T13:36:22.153Z,69.96
2023-04-15T13:38:54.620Z,69.96
2023-04-15T13:41:26.915Z,70.01
2023-04-15T13:43:59.542Z,70.14
2023-04-15T13:46:31.941Z,70.13
2023-04-15T13:49:04.299Z,70.12
2023-04-15T13:51:37.343Z,69.97
2023-04-15T13:54:09.741Z,70.13
2023-04-15T13:56:42.098Z,70.09
2023-04-15T13:59:14.444Z,70.16
2023-04-15T14:01:46.984Z,70.03
2023-04-15T14:04:19.485Z,70.24
2023-04-15T14:06:52.009Z,70.27
2023-04-15T14:09:26.197Z,70.16
2023-04-15T14:12:00.067Z,70.35
2023-04-15T14:14:32.742Z,70.23
2023-04-15T14:17:05.574Z,70.24
2023-04-15T14:19:37.935Z,70.23
2023-04-15T14:22:10.241Z,70.33
2023-04-15T14:24:42.682Z,70.56
2023-04-15T14:27:14.986Z,70.37
2023-04-15T14:29:47.297Z,70.41
2023-04-15T14:32:19.611Z,70.66
2023-04-15T14:34:51.851Z,70.45
2023-04-15T14:37:24.221Z,70.58
2023-04-15T14:39:56.613Z,70.51
2023-04-15T14:42:28.975Z,70.67
2023-04-15T14:45:01.329Z,70.67
2023-04-15T14:47:34.171Z,70.83
2023-04-15T14:50:09.321Z,70.77
2023-04-15T14:52:41.616Z,70.78
2023-04-15T14:55:15.464Z,70.89
2023-04-15T14:57:47.893Z,70.79
2023-04-15T15:00:20.532Z,70.86
2023-04-15T15:02:52.958Z,70.91
2023-04-15T15:05:26.032Z,70.98
2023-04-15T15:07:58.477Z,70.98
2023-04-15T15:10:46.275Z,70.94
2023-04-15T15:13:21.350Z,70.94
2023-04-15T15:15:54.272Z,71.04
2023-04-15T15:18:26.671Z,70.93
2023-04-15T15:20:59.105Z,70.95
2023-04-15T15:23:32.086Z,71.09
2023-04-15T15:26:04.394Z,71.02
2023-04-15T15:28:36.717Z,71.18
2023-04-15T15:31:09.139Z,71.14
2023-04-15T15:33:41.675Z,71.13
2023-04-15T15:36:14.075Z,71.19
2023-04-15T15:38:46.645Z,71.27
2023-04-15T15:41:19.000Z,71.17
2023-04-15T15:43:51.320Z,71.26
2023-04-15T15:46:24.419Z,71.17
2023-04-15T15:48:57.002Z,71.24
2023-04-15T15:51:29.398Z,71.25
2023-04-15T15:54:01.874Z,71.28
2023-04-15T15:56:35.232Z,71.37
2023-04-15T15:59:07.696Z,71.29
2023-04-15T16:01:40.168Z,71.19
2023-04-15T16:04:12.934Z,71.19
2023-04-15T16:06:46.791Z,71.35
2023-04-15T16:09:19.224Z,71.26
2023-04-15T16:11:51.489Z,71.42
2023-04-15T16:14:25.121Z,71.43
2023-04-15T16:16:57.837Z,71.32
2023-04-15T16:19:30.891Z,71.33
2023-04-15T16:22:04.160Z,71.50
2023-04-15T16:24:36.860Z,71.38
2023-04-15T16:27:14.684Z,71.37
2023-04-15T16:29:47.020Z,71.52
2023-04-15T16:32:19.537Z,71.47
2023-04-15T16:34:53.275Z,71.44
2023-04-15T16:37:25.601Z,71.30
2023-04-15T16:39:58.174Z,71.53
2023-04-15T16:42:31.427Z,71.46
2023-04-15T16:45:03.753Z,71.42
2023-04-15T16:47:36.076Z,71.65
2023-04-15T16:50:12.056Z,71.49
2023-04-15T16:52:44.427Z,71.51
2023-04-15T16:55:16.665Z,71.57
2023-04-15T16:58:01.064Z,71.68
2023-04-15T17:00:36.964Z,71.61
2023-04-15T17:03:09.685Z,71.58
2023-04-15T17:05:42.998Z,71.71
2023-04-15T17:08:15.260Z,71.74
2023-04-15T17:10:47.774Z,71.64
2023-04-15T17:13:20.175Z,71.59
2023-04-15T17:15:54.227Z,71.70
2023-04-15T17:18:28.207Z,71.88
2023-04-15T17:21:00.489Z,71.89
2023-04-15T17:23:32.989Z,71.77
2023-04-15T17:26:05.221Z,71.77
2023-04-15T17:28:38.121Z,71.71
2023-04-15T17:31:10.674Z,71.75
2023-04-15T17:33:57.980Z,71.74
2023-04-15T17:36:37.683Z,71.71
2023-04-15T17:39:10.759Z,71.89
2023-04-15T17:41:43.070Z,71.93
2023-04-15T17:44:15.341Z,71.84
2023-04-15T17:46:48.424Z,71.96
2023-04-15T17:49:20.974Z,71.97
2023-04-15T17:51:54.969Z,72.00
2023-04-15T17:54:27.386Z,72.04
2023-04-15T17:57:00.366Z,72.04
2023-04-15T17:59:33.876Z,72.04
2023-04-15T18:02:06.379Z,72.03
2023-04-15T18:04:39.223Z,71.99
2023-04-15T18:07:11.821Z,72.04
2023-04-15T18:09:44.415Z,72.08
2023-04-15T18:12:16.789Z,72.12
2023-04-15T18:14:49.091Z,71.99
2023-04-15T18:17:21.613Z,72.00
2023-04-15T18:19:54.188Z,72.02
2023-04-15T18:22:26.558Z,72.06
2023-04-15T18:25:02.900Z,72.13
2023-04-15T18:27:36.188Z,72.11
2023-04-15T18:30:10.893Z,72.19
2023-04-15T18:32:43.656Z,72.12
2023-04-15T18:35:17.232Z,72.12
2023-04-15T18:37:49.603Z,72.01
2023-04-15T18:40:22.004Z,72.26
2023-04-15T18:42:54.504Z,72.23
2023-04-15T18:45:26.987Z,72.22
2023-04-15T18:47:59.461Z,71.95
2023-04-15T18:50:31.854Z,72.17
2023-04-15T18:53:04.157Z,72.11
2023-04-15T18:55:36.722Z,72.27
2023-04-15T18:58:09.650Z,72.29
2023-04-15T19:00:43.854Z,72.27
2023-04-15T19:03:16.406Z,72.25
2023-04-15T19:05:48.872Z,72.28
2023-04-15T19:08:21.315Z,72.38
2023-04-15T19:10:54.283Z,72.35
2023-04-15T19:13:26.749Z,72.36
2023-04-15T19:15:59.041Z,72.21
2023-04-15T19:18:31.237Z,72.34
2023-04-15T19:21:04.259Z,72.38
2023-04-15T19:23:36.742Z,72.36
2023-04-15T19:26:09.267Z,72.26
2023-04-15T19:28:41.918Z,72.31
2023-04-15T19:31:14.313Z,72.47
2023-04-15T19:33:46.756Z,72.54
2023-04-15T19:36:19.392Z,72.43
2023-04-15T19:38:51.636Z,72.46
2023-04-15T19:41:24.032Z,72.38
2023-04-15T19:43:56.480Z,72.42
2023-04-15T19:46:29.146Z,72.32
2023-04-15T19:49:02.468Z,72.40
2023-04-15T19:51:34.936Z,72.35
2023-04-15T19:54:07.293Z,72.37
2023-04-15T19:56:39.673Z,72.46
2023-04-15T19:59:12.930Z,72.46
2023-04-15T20:01:45.375Z,72.39
2023-04-15T20:04:17.820Z,72.19
2023-04-15T20:06:50.326Z,72.39
2023-04-15T20:09:22.722Z,72.34
2023-04-15T20:12:05.649Z,72.28
2023-04-15T20:14:47.917Z,72.23
2023-04-15T20:17:20.254Z,72.42
2023-04-15T20:19:52.511Z,72.26
2023-04-15T20:22:24.754Z,72.35
2023-04-15T20:24:57.145Z,72.39
2023-04-15T20:27:29.712Z,72.32
2023-04-15T20:30:02.149Z,72.27
2023-04-15T20:32:36.218Z,72.25
2023-04-15T20:35:11.326Z,72.37
2023-04-15T20:37:45.826Z,72.37
2023-04-15T20:40:18.763Z,72.29
2023-04-15T20:42:51.395Z,72.34
2023-04-15T20:45:23.760Z,72.31
2023-04-15T20:47:56.334Z,72.40
2023-04-15T20:50:28.652Z,72.36
2023-04-15T20:53:01.383Z,72.35
2023-04-15T20:55:34.242Z,72.39
2023-04-15T20:58:07.082Z,72.31
2023-04-15T21:00:40.074Z,72.67
2023-04-15T21:03:13.198Z,72.41
2023-04-15T21:05:45.928Z,72.48
2023-04-15T21:08:18.270Z,72.43
2023-04-15T21:10:50.639Z,72.48
2023-04-15T21:13:23.861Z,72.55
2023-04-15T21:15:56.144Z,72.38
2023-04-15T21:18:28.604Z,72.41
2023-04-15T21:21:01.814Z,72.47
2023-04-15T21:23:36.001Z,72.32
2023-04-15T21:26:08.797Z,72.36
2023-04-15T21:28:41.131Z,72.38
2023-04-15T21:31:13.474Z,72.44
2023-04-15T21:33:47.728Z,72.36
2023-04-15T21:36:20.071Z,72.21
2023-04-15T21:38:52.382Z,72.32
2023-04-15T21:41:24.742Z,72.57
2023-04-15T21:43:57.080Z,72.42
2023-04-15T21:46:32.925Z,72.43
2023-04-15T21:49:07.765Z,72.21
2023-04-15T21:51:40.237Z,72.38
2023-04-15T21:54:12.491Z,72.31
2023-04-15T21:56:46.238Z,72.42
2023-04-15T21:59:18.934Z,72.36
2023-04-15T22:01:51.375Z,72.38
2023-04-15T22:04:23.954Z,72.27
2023-04-15T22:07:01.670Z,72.39
2023-04-15T22:09:34.134Z,72.37
2023-04-15T22:12:08.008Z,72.24
2023-04-15T22:14:40.663Z,72.46
2023-04-15T22:17:13.134Z,72.39
2023-04-15T22:19:47.002Z,72.26
2023-04-15T22:22:19.398Z,72.30
2023-04-15T22:24:52.426Z,72.33
2023-04-15T22:27:25.431Z,72.19
2023-04-15T22:29:58.060Z,72.31
2023-04-15T22:32:30.509Z,72.23
2023-04-15T22:35:06.524Z,72.25
2023-04-15T22:37:39.828Z,72.38
2023-04-15T22:40:14.237Z,72.27
2023-04-15T22:42:48.063Z,72.35
2023-04-15T22:45:20.883Z,72.27
2023-04-15T22:47:53.217Z,72.24
2023-04-15T22:50:26.185Z,72.40
2023-04-15T22:52:58.525Z,72.48
2023-04-15T22:55:31.497Z,72.31
2023-04-15T22:58:04.082Z,72.34
2023-04-15T23:00:36.483Z,72.27
2023-04-15T23:03:08.994Z,72.33
2023-04-15T23:05:41.961Z,72.25
2023-04-15T23:08:14.426Z,72.31
2023-04-15T23:10:46.713Z,72.15
2023-04-15T23:13:19.327Z,72.33
2023-04-15T23:15:51.777Z,72.20
2023-04-15T23:18:24.440Z,72.23
2023-04-15T23:20:57.469Z,72.15
2023-04-15T23:23:29.761Z,72.29
2023-04-15T23:26:04.008Z,72.22
2023-04-15T23:28:36.293Z,72.17
2023-04-15T23:31:08.741Z,72.13
2023-04-15T23:33:41.053Z,72.11
2023-04-15T23:36:13.451Z,72.22
2023-04-15T23:38:46.231Z,71.93
2023-04-15T23:41:18.683Z,72.05
2023-04-15T23:43:51.000Z,72.15
2023-04-15T23:46:23.398Z,72.18
2023-04-15T23:48:55.759Z,72.24
2023-04-15T23:51:28.186Z,72.08
2023-04-15T23:54:00.528Z,72.20
2023-04-15T23:56:32.828Z,72.04
2023-04-15T23:59:05.083Z,72.09
